sensor_id;sensor_type;location;lat;lon;timestamp;temperature;humidity
19610;DHT22;9952;47.122;-1.638;2023-04-24T00:02:16;10.30;99.90
19610;DHT22;9952;47.122;-1.638;2023-04-24T00:06:56;10.40;99.90
19610;DHT22;9952;47.122;-1.638;2023-04-24T00:11:41;10.50;99.90
19610;DHT22;9952;47.122;-1.638;2023-04-24T00:16:22;10.60;99.90
19610;DHT22;9952;47.122;-1.638;2023-04-24T00:21:03;10.70;99.90
19610;DHT22;9952;47.122;-1.638;2023-04-24T00:25:44;10.70;99.90
19610;DHT22;9952;47.122;-1.638;2023-04-24T00:30:24;10.70;99.90
19610;DHT22;9952;47.122;-1.638;2023-04-24T00:35:06;10.70;99.90
19610;DHT22;9952;47.122;-1.638;2023-04-24T00:39:46;10.70;99.90
19610;DHT22;9952;47.122;-1.638;2023-04-24T00:44:28;10.70;99.90
19610;DHT22;9952;47.122;-1.638;2023-04-24T00:49:08;10.60;99.90
19610;DHT22;9952;47.122;-1.638;2023-04-24T00:53:49;10.50;99.90
19610;DHT22;9952;47.122;-1.638;2023-04-24T00:58:31;10.50;99.90
19610;DHT22;9952;47.122;-1.638;2023-04-24T01:03:13;10.40;99.90
19610;DHT22;9952;47.122;-1.638;2023-04-24T01:07:54;10.30;99.90
19610;DHT22;9952;47.122;-1.638;2023-04-24T01:12:35;10.30;99.90
19610;DHT22;9952;47.122;-1.638;2023-04-24T01:17:16;10.30;99.90
19610;DHT22;9952;47.122;-1.638;2023-04-24T01:21:58;10.20;99.90
19610;DHT22;9952;47.122;-1.638;2023-04-24T01:26:42;10.20;99.90
19610;DHT22;9952;47.122;-1.638;2023-04-24T01:31:23;10.20;99.90
19610;DHT22;9952;47.122;-1.638;2023-04-24T01:36:04;10.10;99.90
19610;DHT22;9952;47.122;-1.638;2023-04-24T01:40:45;10.10;99.90
19610;DHT22;9952;47.122;-1.638;2023-04-24T01:45:25;10.10;99.90
19610;DHT22;9952;47.122;-1.638;2023-04-24T01:50:07;10.00;99.90
19610;DHT22;9952;47.122;-1.638;2023-04-24T01:54:48;9.90;99.90
19610;DHT22;9952;47.122;-1.638;2023-04-24T01:59:30;9.90;99.90
19610;DHT22;9952;47.122;-1.638;2023-04-24T02:04:11;9.80;99.90
19610;DHT22;9952;47.122;-1.638;2023-04-24T02:08:52;9.80;99.90
19610;DHT22;9952;47.122;-1.638;2023-04-24T02:13:32;9.70;99.90
19610;DHT22;9952;47.122;-1.638;2023-04-24T02:18:13;9.70;99.90
19610;DHT22;9952;47.122;-1.638;2023-04-24T02:22:54;9.60;99.90
19610;DHT22;9952;47.122;-1.638;2023-04-24T02:27:35;9.50;99.90
19610;DHT22;9952;47.122;-1.638;2023-04-24T02:32:16;9.50;99.90
19610;DHT22;9952;47.122;-1.638;2023-04-24T02:36:56;9.40;99.90
19610;DHT22;9952;47.122;-1.638;2023-04-24T02:41:37;9.40;99.90
19610;DHT22;9952;47.122;-1.638;2023-04-24T02:46:18;9.30;99.90
19610;DHT22;9952;47.122;-1.638;2023-04-24T02:50:59;9.30;99.90
19610;DHT22;9952;47.122;-1.638;2023-04-24T02:55:39;9.10;99.90
19610;DHT22;9952;47.122;-1.638;2023-04-24T03:00:20;9.00;99.90
19610;DHT22;9952;47.122;-1.638;2023-04-24T03:05:01;8.90;99.90
19610;DHT22;9952;47.122;-1.638;2023-04-24T03:09:42;8.70;99.90
19610;DHT22;9952;47.122;-1.638;2023-04-24T03:14:23;8.60;99.90
19610;DHT22;9952;47.122;-1.638;2023-04-24T03:19:04;8.60;99.90
19610;DHT22;9952;47.122;-1.638;2023-04-24T03:23:45;8.50;99.90
19610;DHT22;9952;47.122;-1.638;2023-04-24T03:28:26;8.40;99.90
19610;DHT22;9952;47.122;-1.638;2023-04-24T03:33:06;8.40;99.90
19610;DHT22;9952;47.122;-1.638;2023-04-24T03:37:47;8.40;99.90
19610;DHT22;9952;47.122;-1.638;2023-04-24T03:42:28;8.30;99.90
19610;DHT22;9952;47.122;-1.638;2023-04-24T03:47:09;8.10;99.90
19610;DHT22;9952;47.122;-1.638;2023-04-24T03:51:50;8.00;99.90
19610;DHT22;9952;47.122;-1.638;2023-04-24T03:56:31;7.90;99.90
19610;DHT22;9952;47.122;-1.638;2023-04-24T04:06:32;7.80;99.90
19610;DHT22;9952;47.122;-1.638;2023-04-24T04:11:13;7.80;99.90
19610;DHT22;9952;47.122;-1.638;2023-04-24T04:15:54;7.90;99.90
19610;DHT22;9952;47.122;-1.638;2023-04-24T04:20:35;7.90;99.90
19610;DHT22;9952;47.122;-1.638;2023-04-24T04:25:16;7.90;99.90
19610;DHT22;9952;47.122;-1.638;2023-04-24T04:29:59;7.90;99.90
19610;DHT22;9952;47.122;-1.638;2023-04-24T04:34:45;7.90;99.90
19610;DHT22;9952;47.122;-1.638;2023-04-24T04:39:25;8.00;99.90
19610;DHT22;9952;47.122;-1.638;2023-04-24T04:44:08;8.10;99.90
19610;DHT22;9952;47.122;-1.638;2023-04-24T04:48:50;8.20;99.90
19610;DHT22;9952;47.122;-1.638;2023-04-24T04:53:31;8.30;99.90
19610;DHT22;9952;47.122;-1.638;2023-04-24T04:58:11;8.30;99.90
19610;DHT22;9952;47.122;-1.638;2023-04-24T05:02:52;8.40;99.90
19610;DHT22;9952;47.122;-1.638;2023-04-24T05:07:33;8.40;99.90
19610;DHT22;9952;47.122;-1.638;2023-04-24T05:12:39;8.40;99.90
19610;DHT22;9952;47.122;-1.638;2023-04-24T05:17:19;8.40;99.90
19610;DHT22;9952;47.122;-1.638;2023-04-24T05:22:00;8.20;99.90
19610;DHT22;9952;47.122;-1.638;2023-04-24T05:26:43;8.10;99.90
19610;DHT22;9952;47.122;-1.638;2023-04-24T05:31:24;7.90;99.90
19610;DHT22;9952;47.122;-1.638;2023-04-24T05:36:06;7.80;99.90
19610;DHT22;9952;47.122;-1.638;2023-04-24T05:40:47;7.90;99.90
19610;DHT22;9952;47.122;-1.638;2023-04-24T05:45:31;7.80;99.90
19610;DHT22;9952;47.122;-1.638;2023-04-24T05:50:12;7.90;99.90
19610;DHT22;9952;47.122;-1.638;2023-04-24T05:54:53;8.00;99.90
19610;DHT22;9952;47.122;-1.638;2023-04-24T05:59:36;8.10;99.90
19610;DHT22;9952;47.122;-1.638;2023-04-24T06:04:17;8.20;99.90
19610;DHT22;9952;47.122;-1.638;2023-04-24T06:09:34;8.40;99.90
19610;DHT22;9952;47.122;-1.638;2023-04-24T06:14:15;8.50;99.90
19610;DHT22;9952;47.122;-1.638;2023-04-24T06:18:56;8.70;99.90
19610;DHT22;9952;47.122;-1.638;2023-04-24T06:23:37;8.80;99.90
19610;DHT22;9952;47.122;-1.638;2023-04-24T06:28:17;8.90;99.90
19610;DHT22;9952;47.122;-1.638;2023-04-24T06:32:58;9.00;99.90
19610;DHT22;9952;47.122;-1.638;2023-04-24T06:37:40;9.20;99.90
19610;DHT22;9952;47.122;-1.638;2023-04-24T06:42:21;9.30;99.90
19610;DHT22;9952;47.122;-1.638;2023-04-24T06:47:03;9.50;99.90
19610;DHT22;9952;47.122;-1.638;2023-04-24T06:51:43;9.70;99.90
19610;DHT22;9952;47.122;-1.638;2023-04-24T06:56:25;10.00;99.90
19610;DHT22;9952;47.122;-1.638;2023-04-24T07:01:28;10.20;99.90
19610;DHT22;9952;47.122;-1.638;2023-04-24T07:06:09;10.40;99.90
19610;DHT22;9952;47.122;-1.638;2023-04-24T07:10:59;10.60;99.90
19610;DHT22;9952;47.122;-1.638;2023-04-24T07:15:40;10.80;99.90
19610;DHT22;9952;47.122;-1.638;2023-04-24T07:20:21;11.40;99.90
19610;DHT22;9952;47.122;-1.638;2023-04-24T07:25:03;12.00;99.90
19610;DHT22;9952;47.122;-1.638;2023-04-24T07:35:02;12.40;99.90
19610;DHT22;9952;47.122;-1.638;2023-04-24T07:39:43;12.60;99.90
19610;DHT22;9952;47.122;-1.638;2023-04-24T07:44:24;12.80;99.90
19610;DHT22;9952;47.122;-1.638;2023-04-24T07:49:05;13.20;99.90
19610;DHT22;9952;47.122;-1.638;2023-04-24T07:54:17;14.20;99.90
19610;DHT22;9952;47.122;-1.638;2023-04-24T07:58:58;15.20;99.90
19610;DHT22;9952;47.122;-1.638;2023-04-24T08:03:38;15.30;99.90
19610;DHT22;9952;47.122;-1.638;2023-04-24T08:08:21;14.60;99.90
19610;DHT22;9952;47.122;-1.638;2023-04-24T08:13:33;14.70;99.90
19610;DHT22;9952;47.122;-1.638;2023-04-24T08:18:14;15.00;99.90
19610;DHT22;9952;47.122;-1.638;2023-04-24T08:22:56;15.20;99.90
19610;DHT22;9952;47.122;-1.638;2023-04-24T08:27:52;15.10;99.90
19610;DHT22;9952;47.122;-1.638;2023-04-24T08:32:33;15.00;99.90
19610;DHT22;9952;47.122;-1.638;2023-04-24T08:37:14;14.60;99.90
19610;DHT22;9952;47.122;-1.638;2023-04-24T08:41:55;14.60;99.90
19610;DHT22;9952;47.122;-1.638;2023-04-24T08:47:04;14.40;99.90
19610;DHT22;9952;47.122;-1.638;2023-04-24T08:51:45;14.10;99.90
19610;DHT22;9952;47.122;-1.638;2023-04-24T08:56:28;14.10;99.90
19610;DHT22;9952;47.122;-1.638;2023-04-24T09:01:18;14.20;99.90
19610;DHT22;9952;47.122;-1.638;2023-04-24T09:06:00;14.30;99.90
19610;DHT22;9952;47.122;-1.638;2023-04-24T09:10:41;14.30;99.90
19610;DHT22;9952;47.122;-1.638;2023-04-24T09:15:23;14.30;99.90
19610;DHT22;9952;47.122;-1.638;2023-04-24T09:20:05;14.60;99.90
19610;DHT22;9952;47.122;-1.638;2023-04-24T09:24:46;14.90;99.90
19610;DHT22;9952;47.122;-1.638;2023-04-24T09:29:28;15.20;99.90
19610;DHT22;9952;47.122;-1.638;2023-04-24T09:39:44;14.90;99.90
19610;DHT22;9952;47.122;-1.638;2023-04-24T09:44:27;14.70;99.90
19610;DHT22;9952;47.122;-1.638;2023-04-24T09:49:16;14.60;99.90
19610;DHT22;9952;47.122;-1.638;2023-04-24T09:53:57;14.30;99.90
19610;DHT22;9952;47.122;-1.638;2023-04-24T09:58:38;14.10;99.90
19610;DHT22;9952;47.122;-1.638;2023-04-24T10:03:20;14.10;99.90
19610;DHT22;9952;47.122;-1.638;2023-04-24T10:08:09;13.90;99.90
19610;DHT22;9952;47.122;-1.638;2023-04-24T10:12:51;13.70;99.90
19610;DHT22;9952;47.122;-1.638;2023-04-24T10:17:32;13.60;99.90
19610;DHT22;9952;47.122;-1.638;2023-04-24T10:22:15;13.60;99.90
19610;DHT22;9952;47.122;-1.638;2023-04-24T10:26:58;13.70;99.90
19610;DHT22;9952;47.122;-1.638;2023-04-24T10:31:54;14.00;99.90
19610;DHT22;9952;47.122;-1.638;2023-04-24T10:36:36;14.20;99.90
19610;DHT22;9952;47.122;-1.638;2023-04-24T10:41:19;14.30;99.90
19610;DHT22;9952;47.122;-1.638;2023-04-24T10:46:05;14.50;99.90
19610;DHT22;9952;47.122;-1.638;2023-04-24T10:50:50;14.80;99.90
19610;DHT22;9952;47.122;-1.638;2023-04-24T10:55:44;14.90;99.90
19610;DHT22;9952;47.122;-1.638;2023-04-24T11:00:25;15.20;99.90
19610;DHT22;9952;47.122;-1.638;2023-04-24T11:05:08;15.30;99.90
19610;DHT22;9952;47.122;-1.638;2023-04-24T11:09:58;15.50;99.90
19610;DHT22;9952;47.122;-1.638;2023-04-24T11:19:39;16.20;99.90
19610;DHT22;9952;47.122;-1.638;2023-04-24T11:24:23;16.40;99.90
19610;DHT22;9952;47.122;-1.638;2023-04-24T11:29:08;16.40;99.90
19610;DHT22;9952;47.122;-1.638;2023-04-24T11:33:49;16.30;99.90
19610;DHT22;9952;47.122;-1.638;2023-04-24T11:38:30;16.10;99.90
19610;DHT22;9952;47.122;-1.638;2023-04-24T11:43:10;15.90;99.90
19610;DHT22;9952;47.122;-1.638;2023-04-24T11:47:51;16.00;99.90
19610;DHT22;9952;47.122;-1.638;2023-04-24T11:52:33;16.10;99.90
19610;DHT22;9952;47.122;-1.638;2023-04-24T11:57:20;16.40;99.90
19610;DHT22;9952;47.122;-1.638;2023-04-24T12:02:02;16.40;99.90
19610;DHT22;9952;47.122;-1.638;2023-04-24T12:07:09;16.50;99.90
19610;DHT22;9952;47.122;-1.638;2023-04-24T12:11:54;16.30;99.90
19610;DHT22;9952;47.122;-1.638;2023-04-24T12:16:38;16.30;99.90
19610;DHT22;9952;47.122;-1.638;2023-04-24T12:21:22;16.50;99.90
19610;DHT22;9952;47.122;-1.638;2023-04-24T12:26:07;16.60;99.90
19610;DHT22;9952;47.122;-1.638;2023-04-24T12:30:48;16.70;99.90
19610;DHT22;9952;47.122;-1.638;2023-04-24T12:35:31;17.20;99.90
19610;DHT22;9952;47.122;-1.638;2023-04-24T12:40:18;16.80;99.90
19610;DHT22;9952;47.122;-1.638;2023-04-24T12:45:01;16.70;99.90
19610;DHT22;9952;47.122;-1.638;2023-04-24T12:49:42;16.50;99.90
19610;DHT22;9952;47.122;-1.638;2023-04-24T12:54:24;16.40;99.90
19610;DHT22;9952;47.122;-1.638;2023-04-24T12:59:05;16.20;99.90
19610;DHT22;9952;47.122;-1.638;2023-04-24T13:03:46;16.10;99.90
19610;DHT22;9952;47.122;-1.638;2023-04-24T13:08:27;16.50;99.90
19610;DHT22;9952;47.122;-1.638;2023-04-24T13:13:08;17.00;99.90
19610;DHT22;9952;47.122;-1.638;2023-04-24T13:17:50;17.10;99.90
19610;DHT22;9952;47.122;-1.638;2023-04-24T13:22:30;17.40;99.90
19610;DHT22;9952;47.122;-1.638;2023-04-24T13:27:11;17.30;99.90
19610;DHT22;9952;47.122;-1.638;2023-04-24T13:31:53;17.20;99.90
19610;DHT22;9952;47.122;-1.638;2023-04-24T13:36:37;17.50;99.90
19610;DHT22;9952;47.122;-1.638;2023-04-24T13:41:18;17.60;99.90
19610;DHT22;9952;47.122;-1.638;2023-04-24T13:45:58;17.40;99.90
19610;DHT22;9952;47.122;-1.638;2023-04-24T13:50:42;17.30;99.90
19610;DHT22;9952;47.122;-1.638;2023-04-24T13:55:23;17.30;99.90
19610;DHT22;9952;47.122;-1.638;2023-04-24T14:00:04;17.40;99.90
19610;DHT22;9952;47.122;-1.638;2023-04-24T14:04:46;17.70;99.90
19610;DHT22;9952;47.122;-1.638;2023-04-24T14:09:28;17.80;99.90
19610;DHT22;9952;47.122;-1.638;2023-04-24T14:14:10;17.00;99.90
19610;DHT22;9952;47.122;-1.638;2023-04-24T14:18:50;17.00;99.90
19610;DHT22;9952;47.122;-1.638;2023-04-24T14:23:31;17.10;99.90
19610;DHT22;9952;47.122;-1.638;2023-04-24T14:28:12;16.80;99.90
19610;DHT22;9952;47.122;-1.638;2023-04-24T14:32:53;17.10;99.90
19610;DHT22;9952;47.122;-1.638;2023-04-24T14:37:34;17.10;99.90
19610;DHT22;9952;47.122;-1.638;2023-04-24T14:42:16;17.20;99.90
19610;DHT22;9952;47.122;-1.638;2023-04-24T14:46:58;17.00;99.90
19610;DHT22;9952;47.122;-1.638;2023-04-24T14:51:42;17.00;99.90
19610;DHT22;9952;47.122;-1.638;2023-04-24T14:56:23;17.10;99.90
19610;DHT22;9952;47.122;-1.638;2023-04-24T15:01:04;17.20;99.90
19610;DHT22;9952;47.122;-1.638;2023-04-24T15:05:45;17.40;99.90
19610;DHT22;9952;47.122;-1.638;2023-04-24T15:10:26;17.00;99.90
19610;DHT22;9952;47.122;-1.638;2023-04-24T15:15:08;16.60;99.90
19610;DHT22;9952;47.122;-1.638;2023-04-24T15:19:49;16.50;99.90
19610;DHT22;9952;47.122;-1.638;2023-04-24T15:24:29;16.70;99.90
19610;DHT22;9952;47.122;-1.638;2023-04-24T15:29:10;16.90;99.90
19610;DHT22;9952;47.122;-1.638;2023-04-24T15:33:51;16.80;99.90
19610;DHT22;9952;47.122;-1.638;2023-04-24T15:38:32;16.60;99.90
19610;DHT22;9952;47.122;-1.638;2023-04-24T15:43:13;16.50;99.90
19610;DHT22;9952;47.122;-1.638;2023-04-24T15:47:53;16.70;99.90
19610;DHT22;9952;47.122;-1.638;2023-04-24T15:52:34;16.80;99.90
19610;DHT22;9952;47.122;-1.638;2023-04-24T15:57:15;16.80;99.90
19610;DHT22;9952;47.122;-1.638;2023-04-24T16:01:56;17.00;99.90
19610;DHT22;9952;47.122;-1.638;2023-04-24T16:06:37;17.20;99.90
19610;DHT22;9952;47.122;-1.638;2023-04-24T16:11:18;17.30;99.90
19610;DHT22;9952;47.122;-1.638;2023-04-24T16:15:59;17.20;99.90
19610;DHT22;9952;47.122;-1.638;2023-04-24T16:20:40;17.10;99.90
19610;DHT22;9952;47.122;-1.638;2023-04-24T16:25:21;17.00;99.90
19610;DHT22;9952;47.122;-1.638;2023-04-24T16:30:02;16.80;99.90
19610;DHT22;9952;47.122;-1.638;2023-04-24T16:34:43;16.50;99.90
19610;DHT22;9952;47.122;-1.638;2023-04-24T16:39:25;16.30;99.90
19610;DHT22;9952;47.122;-1.638;2023-04-24T16:44:07;16.20;99.90
19610;DHT22;9952;47.122;-1.638;2023-04-24T16:48:48;16.30;99.90
19610;DHT22;9952;47.122;-1.638;2023-04-24T16:53:29;16.30;99.90
19610;DHT22;9952;47.122;-1.638;2023-04-24T16:58:10;16.10;99.90
19610;DHT22;9952;47.122;-1.638;2023-04-24T17:02:51;16.00;99.90
19610;DHT22;9952;47.122;-1.638;2023-04-24T17:07:31;15.90;99.90
19610;DHT22;9952;47.122;-1.638;2023-04-24T17:12:12;15.90;99.90
19610;DHT22;9952;47.122;-1.638;2023-04-24T17:16:53;15.80;99.90
19610;DHT22;9952;47.122;-1.638;2023-04-24T17:21:34;15.80;99.90
19610;DHT22;9952;47.122;-1.638;2023-04-24T17:26:15;15.60;99.90
19610;DHT22;9952;47.122;-1.638;2023-04-24T17:30:56;15.50;99.90
19610;DHT22;9952;47.122;-1.638;2023-04-24T17:35:37;15.40;99.90
19610;DHT22;9952;47.122;-1.638;2023-04-24T17:40:18;15.40;99.90
19610;DHT22;9952;47.122;-1.638;2023-04-24T17:44:59;15.40;99.90
19610;DHT22;9952;47.122;-1.638;2023-04-24T17:49:40;15.40;99.90
19610;DHT22;9952;47.122;-1.638;2023-04-24T17:54:22;15.30;99.90
19610;DHT22;9952;47.122;-1.638;2023-04-24T17:59:03;15.20;99.90
19610;DHT22;9952;47.122;-1.638;2023-04-24T18:03:43;15.20;99.90
19610;DHT22;9952;47.122;-1.638;2023-04-24T18:08:24;15.10;99.90
19610;DHT22;9952;47.122;-1.638;2023-04-24T18:13:05;14.90;99.90
19610;DHT22;9952;47.122;-1.638;2023-04-24T18:17:46;14.80;99.90
19610;DHT22;9952;47.122;-1.638;2023-04-24T18:22:27;14.60;99.90
19610;DHT22;9952;47.122;-1.638;2023-04-24T18:27:08;14.50;99.90
19610;DHT22;9952;47.122;-1.638;2023-04-24T18:31:49;14.40;99.90
19610;DHT22;9952;47.122;-1.638;2023-04-24T18:36:30;14.20;99.90
19610;DHT22;9952;47.122;-1.638;2023-04-24T18:41:12;14.10;99.90
19610;DHT22;9952;47.122;-1.638;2023-04-24T18:45:53;14.00;99.90
19610;DHT22;9952;47.122;-1.638;2023-04-24T18:50:34;13.90;99.90
19610;DHT22;9952;47.122;-1.638;2023-04-24T18:55:15;13.90;99.90
19610;DHT22;9952;47.122;-1.638;2023-04-24T18:59:56;13.80;99.90
19610;DHT22;9952;47.122;-1.638;2023-04-24T19:04:36;13.60;99.90
19610;DHT22;9952;47.122;-1.638;2023-04-24T19:09:17;13.50;99.90
19610;DHT22;9952;47.122;-1.638;2023-04-24T19:13:58;13.40;99.90
19610;DHT22;9952;47.122;-1.638;2023-04-24T19:18:42;13.30;99.90
19610;DHT22;9952;47.122;-1.638;2023-04-24T19:23:23;13.20;99.90
19610;DHT22;9952;47.122;-1.638;2023-04-24T19:28:04;13.10;99.90
19610;DHT22;9952;47.122;-1.638;2023-04-24T19:32:44;13.00;99.90
19610;DHT22;9952;47.122;-1.638;2023-04-24T19:37:25;12.80;99.90
19610;DHT22;9952;47.122;-1.638;2023-04-24T19:42:06;12.80;99.90
19610;DHT22;9952;47.122;-1.638;2023-04-24T19:46:47;12.70;99.90
19610;DHT22;9952;47.122;-1.638;2023-04-24T19:51:28;12.70;99.90
19610;DHT22;9952;47.122;-1.638;2023-04-24T19:56:08;12.60;99.90
19610;DHT22;9952;47.122;-1.638;2023-04-24T20:00:50;12.50;99.90
19610;DHT22;9952;47.122;-1.638;2023-04-24T20:05:30;12.50;99.90
19610;DHT22;9952;47.122;-1.638;2023-04-24T20:10:11;12.40;99.90
19610;DHT22;9952;47.122;-1.638;2023-04-24T20:14:52;12.30;99.90
19610;DHT22;9952;47.122;-1.638;2023-04-24T20:19:33;12.20;99.90
19610;DHT22;9952;47.122;-1.638;2023-04-24T20:24:14;12.20;99.90
19610;DHT22;9952;47.122;-1.638;2023-04-24T20:28:55;12.10;99.90
19610;DHT22;9952;47.122;-1.638;2023-04-24T20:33:36;12.00;99.90
19610;DHT22;9952;47.122;-1.638;2023-04-24T20:38:20;11.90;99.90
19610;DHT22;9952;47.122;-1.638;2023-04-24T20:43:02;11.90;99.90
19610;DHT22;9952;47.122;-1.638;2023-04-24T20:47:43;11.80;99.90
19610;DHT22;9952;47.122;-1.638;2023-04-24T20:52:25;11.70;99.90
19610;DHT22;9952;47.122;-1.638;2023-04-24T20:57:06;11.60;99.90
19610;DHT22;9952;47.122;-1.638;2023-04-24T21:01:47;11.50;99.90
19610;DHT22;9952;47.122;-1.638;2023-04-24T21:06:30;11.50;99.90
19610;DHT22;9952;47.122;-1.638;2023-04-24T21:11:11;11.50;99.90
19610;DHT22;9952;47.122;-1.638;2023-04-24T21:15:52;11.40;99.90
19610;DHT22;9952;47.122;-1.638;2023-04-24T21:20:33;11.30;99.90
19610;DHT22;9952;47.122;-1.638;2023-04-24T21:25:13;11.30;99.90
19610;DHT22;9952;47.122;-1.638;2023-04-24T21:29:54;11.30;99.90
19610;DHT22;9952;47.122;-1.638;2023-04-24T21:34:35;11.20;99.90
19610;DHT22;9952;47.122;-1.638;2023-04-24T21:39:16;11.10;99.90
19610;DHT22;9952;47.122;-1.638;2023-04-24T21:43:57;11.10;99.90
19610;DHT22;9952;47.122;-1.638;2023-04-24T21:48:38;11.00;99.90
19610;DHT22;9952;47.122;-1.638;2023-04-24T21:53:19;11.00;99.90
19610;DHT22;9952;47.122;-1.638;2023-04-24T21:58:00;11.00;99.90
19610;DHT22;9952;47.122;-1.638;2023-04-24T22:02:41;10.90;99.90
19610;DHT22;9952;47.122;-1.638;2023-04-24T22:07:22;10.90;99.90
19610;DHT22;9952;47.122;-1.638;2023-04-24T22:12:04;10.90;99.90
19610;DHT22;9952;47.122;-1.638;2023-04-24T22:16:44;10.90;99.90
19610;DHT22;9952;47.122;-1.638;2023-04-24T22:21:27;10.90;99.90
19610;DHT22;9952;47.122;-1.638;2023-04-24T22:26:08;10.80;99.90
19610;DHT22;9952;47.122;-1.638;2023-04-24T22:30:48;10.80;99.90
19610;DHT22;9952;47.122;-1.638;2023-04-24T22:35:29;10.70;99.90
19610;DHT22;9952;47.122;-1.638;2023-04-24T22:40:10;10.70;99.90
19610;DHT22;9952;47.122;-1.638;2023-04-24T22:44:51;10.60;99.90
19610;DHT22;9952;47.122;-1.638;2023-04-24T22:49:32;10.50;99.90
19610;DHT22;9952;47.122;-1.638;2023-04-24T22:54:14;10.50;99.90
19610;DHT22;9952;47.122;-1.638;2023-04-24T22:58:55;10.50;99.90
19610;DHT22;9952;47.122;-1.638;2023-04-24T23:03:36;10.40;99.90
19610;DHT22;9952;47.122;-1.638;2023-04-24T23:08:17;10.40;99.90
19610;DHT22;9952;47.122;-1.638;2023-04-24T23:12:58;10.30;99.90
19610;DHT22;9952;47.122;-1.638;2023-04-24T23:17:38;10.30;99.90
19610;DHT22;9952;47.122;-1.638;2023-04-24T23:22:20;10.20;99.90
19610;DHT22;9952;47.122;-1.638;2023-04-24T23:27:01;10.20;99.90
19610;DHT22;9952;47.122;-1.638;2023-04-24T23:31:41;10.20;99.90
19610;DHT22;9952;47.122;-1.638;2023-04-24T23:36:22;10.10;99.90
19610;DHT22;9952;47.122;-1.638;2023-04-24T23:41:03;10.10;99.90
19610;DHT22;9952;47.122;-1.638;2023-04-24T23:45:44;10.00;99.90
19610;DHT22;9952;47.122;-1.638;2023-04-24T23:50:24;9.90;99.90
19610;DHT22;9952;47.122;-1.638;2023-04-24T23:55:05;9.90;99.90
19610;DHT22;9952;47.122;-1.638;2023-04-24T23:59:48;9.80;99.90
